Time;durP1;ratioP1;P1;durP2;ratioP2;P2;SDS_P1;SDS_P2;PMS_P1;PMS_P2;Temp;Humidity;BMP_temperature;BMP_pressure;BME280_temperature;BME280_humidity;BME280_pressure;Samples;Min_cycle;Max_cycle;Signal;HPM_P1;HPM_P2
2022/01/28 00:00:00;;;;;;;17.23;3.17;;;;;;;4.66;93.64;102888.66;5233070;28;20057;-77
2022/01/28 00:04:55;;;;;;;17.63;2.80;;;;;;;4.59;93.34;102922.41;5232623;28;20032;-77
2022/01/28 00:07:26;;;;;;;15.40;3.03;;;;;;;4.53;93.25;102922.41;5215882;28;20380;-77
2022/01/28 00:09:57;;;;;;;13.23;2.10;;;;;;;4.63;92.96;102923.25;5234048;28;20088;-77
2022/01/28 00:12:30;;;;;;;20.60;3.70;;;;;;;4.43;93.38;102928.47;5233719;28;20392;-77
2022/01/28 00:15:18;;;;;;;14.17;2.73;;;;;;;4.64;92.92;102935.38;5233848;28;20232;-77
2022/01/28 00:18:24;;;;;;;14.60;2.87;;;;;;;4.55;93.48;102948.34;5234277;28;20036;-77
2022/01/28 00:39:49;;;;;;;15.27;2.93;;;;;;;4.39;94.18;102944.88;5212977;28;20061;-76
2022/01/28 00:42:20;;;;;;;14.80;3.07;;;;;;;4.41;92.92;102950.94;5212534;28;20406;-76
2022/01/28 00:44:52;;;;;;;14.17;2.90;;;;;;;4.17;93.90;102931.91;5213277;28;20144;-77
2022/01/28 00:47:23;;;;;;;16.40;3.43;;;;;;;4.07;94.46;102944.88;5212476;28;20026;-77
2022/01/28 00:49:54;;;;;;;14.53;2.53;;;;;;;4.22;94.09;102944.00;5211710;28;20092;-77
2022/01/28 00:52:26;;;;;;;13.43;3.20;;;;;;;4.28;94.39;102943.16;5213219;28;20034;-77
2022/01/28 00:54:58;;;;;;;16.23;3.20;;;;;;;4.27;94.20;102941.44;5212519;28;20051;-76
2022/01/28 00:57:29;;;;;;;24.27;3.03;;;;;;;4.19;93.02;102943.16;5212445;28;20112;-77
2022/01/28 01:00:01;;;;;;;15.03;2.63;;;;;;;4.26;94.12;102944.88;5212469;28;20084;-76
2022/01/28 01:02:32;;;;;;;16.83;2.83;;;;;;;4.19;93.80;102953.53;5211920;28;20048;-76
2022/01/28 01:05:04;;;;;;;13.37;3.57;;;;;;;4.18;93.77;102939.69;5211313;28;20033;-76
2022/01/28 01:07:37;;;;;;;17.53;2.80;;;;;;;4.17;93.88;102950.91;5212096;28;20905;-76
2022/01/28 01:10:09;;;;;;;13.40;2.40;;;;;;;4.17;94.06;102950.06;5211965;28;20340;-76
2022/01/28 01:12:44;;;;;;;15.87;4.37;;;;;;;4.15;93.83;102952.66;5212014;28;20503;-76
2022/01/28 01:15:22;;;;;;;17.33;3.77;;;;;;;4.14;93.91;102950.91;5212313;28;20030;-76
2022/01/28 01:18:07;;;;;;;8.90;2.17;;;;;;;4.13;95.27;102966.47;5212144;28;20030;-76
2022/01/28 01:23:25;;;;;;;18.63;3.50;;;;;;;4.20;93.73;102956.13;5215064;28;20045;-76
2022/01/28 01:26:08;;;;;;;10.57;3.07;;;;;;;4.30;93.26;102951.81;5213512;28;20025;-76
2022/01/28 01:28:41;;;;;;;18.03;4.57;;;;;;;4.26;93.52;102954.41;5211616;28;20232;-76
2022/01/28 01:31:17;;;;;;;18.53;3.00;;;;;;;4.28;93.18;102956.13;5211751;28;20029;-76
2022/01/28 01:33:55;;;;;;;19.40;2.57;;;;;;;4.31;93.00;102974.28;5211332;28;20087;-76
2022/01/28 01:36:27;;;;;;;16.30;2.00;;;;;;;4.36;92.62;102969.97;5193768;28;20137;-76
2022/01/28 01:38:59;;;;;;;17.60;4.03;;;;;;;4.27;92.44;102974.28;5211598;28;20116;-76
2022/01/28 01:41:44;;;;;;;17.73;4.03;;;;;;;4.19;93.21;102969.09;5211281;28;20018;-76
2022/01/28 01:44:47;;;;;;;14.60;3.17;;;;;;;4.26;93.24;102972.56;5211466;28;20503;-76
2022/01/28 01:53:02;;;;;;;24.17;3.67;;;;;;;4.11;93.46;102997.59;5211879;28;20041;-77
2022/01/28 01:55:33;;;;;;;16.70;3.07;;;;;;;4.20;94.44;103001.94;5211132;28;20677;-77
2022/01/28 01:58:05;;;;;;;15.20;2.80;;;;;;;3.97;94.56;103005.34;5211447;28;20034;-77
2022/01/28 02:00:36;;;;;;;10.40;2.60;;;;;;;3.98;94.90;103009.66;5211202;28;20022;-75
2022/01/28 02:03:07;;;;;;;16.63;3.70;;;;;;;3.94;95.21;103020.91;5211297;28;20049;-77
2022/01/28 02:05:39;;;;;;;18.13;2.90;;;;;;;4.14;94.51;103022.69;5209928;28;20021;-77
2022/01/28 02:08:10;;;;;;;17.10;3.63;;;;;;;4.08;94.45;103015.75;5233633;22;20128;-77
2022/01/28 02:10:41;;;;;;;22.73;3.03;;;;;;;4.01;94.44;103021.78;5240754;28;20092;-76
2022/01/28 02:13:12;;;;;;;17.13;3.47;;;;;;;4.04;94.86;103027.84;5234580;28;20044;-77
2022/01/28 02:15:44;;;;;;;13.73;3.20;;;;;;;3.88;95.43;103026.91;5231581;28;20040;-76
2022/01/28 02:18:15;;;;;;;12.27;2.40;;;;;;;3.97;96.77;103028.69;5231437;28;20036;-77
2022/01/28 02:20:50;;;;;;;20.13;4.23;;;;;;;3.91;95.37;103037.28;5231112;28;20041;-77
2022/01/28 02:23:23;;;;;;;22.45;3.63;;;;;;;3.88;95.48;103039.88;5230920;28;20083;-76
2022/01/28 02:25:57;;;;;;;17.33;3.13;;;;;;;3.95;95.80;103035.59;5231472;28;20104;-75
2022/01/28 02:28:33;;;;;;;14.55;3.22;;;;;;;4.05;95.52;103044.28;5231326;28;20026;-76
2022/01/28 02:31:05;;;;;;;15.67;3.37;;;;;;;3.95;95.91;103038.16;5231400;28;20029;-76
2022/01/28 02:33:36;;;;;;;18.83;3.27;;;;;;;3.92;95.91;103028.69;5230915;28;20022;-76
2022/01/28 02:36:08;;;;;;;18.20;3.23;;;;;;;4.10;95.51;103052.94;5230600;28;20502;-75
2022/01/28 02:38:39;;;;;;;15.63;3.23;;;;;;;4.03;95.32;103031.31;5231295;28;20018;-76
2022/01/28 02:41:10;;;;;;;19.43;4.80;;;;;;;4.00;95.93;103044.25;5231407;28;20026;-76
2022/01/28 02:44:10;;;;;;;17.23;4.63;;;;;;;3.96;96.21;103039.94;5230798;28;20434;-76
2022/01/28 02:46:39;;;;;;;19.40;3.53;;;;;;;3.95;96.29;103043.38;5229932;28;20060;-76
2022/01/28 02:49:11;;;;;;;14.20;3.13;;;;;;;4.12;95.55;103051.19;5230147;28;20032;-76
2022/01/28 02:51:43;;;;;;;20.23;2.93;;;;;;;4.18;95.37;103058.13;5231659;28;20075;-75
2022/01/28 02:54:16;;;;;;;15.17;2.73;;;;;;;4.07;95.79;103056.38;5230832;28;20029;-76
2022/01/28 02:57:00;;;;;;;16.83;3.57;;;;;;;3.97;95.83;103058.09;5231101;28;20045;-76
2022/01/28 02:59:31;;;;;;;17.20;4.23;;;;;;;3.91;95.88;103062.38;5230399;28;20049;-76
2022/01/28 03:02:03;;;;;;;15.67;2.80;;;;;;;3.97;96.15;103068.44;5231228;28;20047;-76
2022/01/28 03:07:15;;;;;;;16.50;3.87;;;;;;;3.93;96.00;103069.28;5231212;28;20404;-76
2022/01/28 03:09:51;;;;;;;23.03;3.53;;;;;;;3.93;96.34;103071.00;5230974;28;20036;-75
2022/01/28 03:12:32;;;;;;;13.67;2.93;;;;;;;3.85;96.48;103083.94;5230911;28;20488;-76
2022/01/28 03:15:07;;;;;;;21.97;4.67;;;;;;;3.84;96.98;103085.66;5213325;28;20087;-75
2022/01/28 03:17:52;;;;;;;18.20;2.90;;;;;;;3.96;96.32;103077.06;5231086;28;20404;-76
2022/01/28 03:22:55;;;;;;;10.53;2.13;;;;;;;4.00;95.95;103075.34;5231382;28;20090;-75
2022/01/28 03:25:27;;;;;;;12.47;3.60;;;;;;;3.97;96.67;103077.94;5230405;28;20111;-76
2022/01/28 03:27:59;;;;;;;20.57;2.90;;;;;;;4.06;95.93;103083.19;5231109;28;20029;-76
2022/01/28 03:30:31;;;;;;;14.73;3.33;;;;;;;4.11;96.09;103091.84;5230220;28;20370;-76
2022/01/28 03:33:02;;;;;;;13.60;3.30;;;;;;;3.99;97.38;103090.06;5231848;28;20026;-76
2022/01/28 03:35:35;;;;;;;14.47;3.20;;;;;;;3.95;97.25;103085.72;5233613;28;20045;-75
2022/01/28 03:38:11;;;;;;;16.03;3.73;;;;;;;4.09;97.38;103084.91;5216638;28;20123;-75
2022/01/28 03:40:43;;;;;;;12.43;2.77;;;;;;;4.13;97.17;103081.47;5234685;28;20084;-75
2022/01/28 03:43:14;;;;;;;19.20;3.77;;;;;;;4.14;97.37;103090.97;5234231;28;20018;-75
2022/01/28 03:45:45;;;;;;;20.10;2.87;;;;;;;4.16;97.22;103085.78;5234721;28;20025;-75
2022/01/28 03:48:16;;;;;;;19.73;4.60;;;;;;;4.11;96.91;103091.84;5233881;28;20025;-76
2022/01/28 03:50:50;;;;;;;18.70;4.30;;;;;;;4.12;97.33;103079.72;5233925;28;20034;-75
2022/01/28 03:53:22;;;;;;;14.98;3.05;;;;;;;3.95;97.68;103090.03;5234127;28;20032;-75
2022/01/28 03:55:56;;;;;;;13.50;2.83;;;;;;;3.87;97.21;103088.25;5234541;28;20026;-75
2022/01/28 03:58:27;;;;;;;17.00;2.85;;;;;;;4.07;96.96;103089.22;5233921;28;20059;-75
2022/01/28 04:00:59;;;;;;;12.57;3.10;;;;;;;4.06;97.01;103092.69;5216367;28;20071;-75
2022/01/28 04:14:15;;;;;;;16.27;2.80;;;;;;;3.71;97.68;103113.25;5213393;28;20065;-75
2022/01/28 04:19:37;;;;;;;9.43;1.77;;;;;;;3.66;96.19;103104.59;5212226;28;20046;-76
2022/01/28 04:22:08;;;;;;;17.27;2.73;;;;;;;3.66;97.11;103114.09;5213374;28;20101;-75
2022/01/28 04:24:39;;;;;;;11.47;2.30;;;;;;;3.69;97.32;103103.72;5195274;28;20025;-75
2022/01/28 04:27:11;;;;;;;10.03;2.10;;;;;;;3.74;97.90;103118.47;5213302;28;20038;-76
2022/01/28 04:29:43;;;;;;;16.27;2.07;;;;;;;3.70;98.09;103115.84;5212935;28;20026;-75
2022/01/28 04:32:14;;;;;;;9.33;2.20;;;;;;;3.44;98.12;103104.44;5213350;28;20539;-75
2022/01/28 04:34:46;;;;;;;16.47;4.53;;;;;;;3.62;98.76;103127.03;5194490;28;20068;-76
2022/01/28 04:37:30;;;;;;;7.50;2.67;;;;;;;3.59;98.67;103129.59;5212429;28;20022;-75
2022/01/28 04:43:02;;;;;;;15.18;2.33;;;;;;;3.67;99.93;103131.34;5213190;28;20496;-75
2022/01/28 04:45:43;;;;;;;7.97;1.87;;;;;;;3.73;99.53;103126.22;5211904;28;20038;-76
2022/01/28 04:48:29;;;;;;;16.33;3.60;;;;;;;3.57;100.00;103115.75;5212445;28;20535;-75
2022/01/28 04:51:15;;;;;;;15.63;2.73;;;;;;;3.86;99.99;103137.50;5213057;28;20030;-75
2022/01/28 04:56:45;;;;;;;12.07;2.83;;;;;;;3.73;100.00;103141.78;5212512;28;20053;-75
2022/01/28 04:59:45;;;;;;;15.50;3.63;;;;;;;3.81;100.00;103147.00;5194803;28;20392;-75
2022/01/28 05:02:31;;;;;;;12.40;3.27;;;;;;;3.76;100.00;103134.00;5228946;28;20476;-75
2022/01/28 05:05:30;;;;;;;16.27;2.80;;;;;;;3.58;100.00;103140.81;5232127;28;20464;-75
2022/01/28 05:08:32;;;;;;;15.60;3.00;;;;;;;3.71;100.00;103148.66;5232793;28;20057;-75
2022/01/28 05:11:23;;;;;;;16.27;3.70;;;;;;;3.75;100.00;103166.00;5232742;28;20072;-76
2022/01/28 05:14:20;;;;;;;14.47;4.23;;;;;;;3.68;99.92;103153.84;5232758;28;20040;-75
2022/01/28 05:27:59;;;;;;;16.83;3.40;;;;;;;3.45;100.00;103172.69;5232198;28;20041;-75
2022/01/28 05:30:30;;;;;;;21.83;4.43;;;;;;;3.50;100.00;103176.16;5232513;28;20508;-75
2022/01/28 05:33:02;;;;;;;16.03;3.30;;;;;;;3.45;100.00;103172.69;5232638;28;20439;-75
2022/01/28 05:35:33;;;;;;;18.40;4.43;;;;;;;3.31;100.00;103175.16;5230774;28;20514;-75
2022/01/28 05:38:04;;;;;;;17.57;3.80;;;;;;;3.21;100.00;103174.22;5215170;28;20040;-75
2022/01/28 05:40:36;;;;;;;17.57;3.10;;;;;;;3.36;100.00;103179.53;5231335;28;20082;-75
2022/01/28 05:43:07;;;;;;;11.67;3.13;;;;;;;3.09;100.00;103175.81;5232829;28;20492;-75
2022/01/28 05:45:38;;;;;;;16.37;3.67;;;;;;;3.28;100.00;103193.25;5231558;28;20032;-75
2022/01/28 05:48:11;;;;;;;17.33;3.53;;;;;;;3.17;100.00;103187.97;5231118;28;20025;-75
2022/01/28 05:50:42;;;;;;;18.57;3.50;;;;;;;3.22;100.00;103200.13;5232291;28;20053;-75
2022/01/28 05:53:14;;;;;;;21.47;3.40;;;;;;;3.17;100.00;103199.22;5231456;28;20029;-75
2022/01/28 05:55:46;;;;;;;12.90;3.07;;;;;;;3.08;100.00;103199.97;5214466;28;20058;-75
2022/01/28 05:58:17;;;;;;;17.47;2.97;;;;;;;3.20;100.00;103199.22;5231279;28;20030;-75
2022/01/28 06:00:48;;;;;;;17.43;4.33;;;;;;;3.07;100.00;103208.59;5226026;28;20061;-75
2022/01/28 06:03:19;;;;;;;18.70;3.87;;;;;;;3.02;100.00;103215.44;5217475;28;20025;-75
2022/01/28 06:05:51;;;;;;;12.07;3.17;;;;;;;2.99;99.77;103216.28;5211387;28;20029;-75
2022/01/28 06:08:22;;;;;;;17.57;4.00;;;;;;;3.07;99.16;103224.13;5210911;28;20050;-76
2022/01/28 06:10:54;;;;;;;14.47;3.90;;;;;;;2.88;99.33;103212.72;5215312;28;20492;-77
2022/01/28 06:13:25;;;;;;;14.83;3.40;;;;;;;3.01;100.00;103234.44;5211583;28;20026;-77
2022/01/28 06:15:57;;;;;;;23.33;4.07;;;;;;;3.04;100.00;103239.63;5210811;28;20036;-76
2022/01/28 06:18:29;;;;;;;18.47;3.10;;;;;;;2.92;99.87;103244.66;5192606;28;20366;-76
2022/01/28 06:21:00;;;;;;;11.27;3.33;;;;;;;2.84;99.19;103237.72;5210761;28;20186;-76
2022/01/28 06:23:32;;;;;;;10.83;2.73;;;;;;;2.83;99.90;103235.09;5210729;28;20026;-77
2022/01/28 06:26:04;;;;;;;14.87;3.20;;;;;;;2.72;98.77;103246.19;5211559;28;20100;-77
2022/01/28 06:28:35;;;;;;;16.73;3.10;;;;;;;2.71;99.55;103244.44;5210040;28;20038;-77
2022/01/28 06:31:06;;;;;;;21.83;5.37;;;;;;;2.78;100.00;103241.09;5216609;28;20033;-77
2022/01/28 06:33:37;;;;;;;19.30;4.67;;;;;;;2.58;98.76;103245.16;5230101;28;20026;-76
2022/01/28 06:36:09;;;;;;;14.20;4.23;;;;;;;2.72;98.92;103258.25;5226025;28;20038;-76
2022/01/28 06:38:40;;;;;;;13.77;3.33;;;;;;;2.58;98.25;103264.13;5230292;28;20051;-76
2022/01/28 06:41:11;;;;;;;18.23;3.53;;;;;;;2.66;99.29;103275.44;5221378;28;20030;-74
2022/01/28 06:43:42;;;;;;;11.57;3.40;;;;;;;2.64;98.15;103266.78;5211179;28;20091;-77
2022/01/28 06:46:14;;;;;;;16.17;3.77;;;;;;;2.60;98.38;103274.50;5219331;28;20061;-77
2022/01/28 06:48:45;;;;;;;13.90;3.50;;;;;;;2.52;98.87;103277.84;5230855;28;20087;-77
2022/01/28 06:51:16;;;;;;;16.63;4.40;;;;;;;2.48;98.95;103277.78;5223674;28;20049;-78
2022/01/28 06:53:48;;;;;;;19.03;4.57;;;;;;;2.33;99.45;103275.84;5213722;28;20029;-77
2022/01/28 06:56:19;;;;;;;18.73;4.73;;;;;;;2.46;99.68;103288.09;5209321;28;20034;-77
2022/01/28 06:58:50;;;;;;;14.27;3.50;;;;;;;2.29;99.36;103300.78;5227492;28;20025;-77
2022/01/28 07:01:21;;;;;;;10.93;3.40;;;;;;;2.26;99.79;103295.56;5230000;28;20042;-77
2022/01/28 07:03:53;;;;;;;24.07;6.27;;;;;;;2.40;99.05;103298.38;5234733;28;20025;-74
2022/01/28 07:06:24;;;;;;;16.23;3.63;;;;;;;2.25;98.64;103320.56;5251063;28;20025;-75
2022/01/28 07:08:55;;;;;;;13.83;3.60;;;;;;;2.05;97.90;103305.63;5237646;28;20061;-74
2022/01/28 07:11:26;;;;;;;13.80;3.63;;;;;;;2.02;99.89;103322.78;5224928;28;20041;-74
2022/01/28 07:13:58;;;;;;;20.23;6.03;;;;;;;2.01;100.00;103326.19;5231106;28;20021;-73
2022/01/28 07:16:32;;;;;;;22.57;5.23;;;;;;;2.22;99.84;103333.44;5222695;28;20034;-75
2022/01/28 07:19:04;;;;;;;17.15;4.57;;;;;;;2.29;99.87;103337.00;5224072;28;20041;-75
2022/01/28 07:21:35;;;;;;;19.37;5.87;;;;;;;2.15;99.16;103329.91;5221626;28;20029;-74
2022/01/28 07:24:07;;;;;;;10.30;4.43;;;;;;;2.23;98.45;103336.91;5224355;28;20025;-75
2022/01/28 07:26:38;;;;;;;16.13;3.93;;;;;;;2.18;98.62;103335.09;5223443;28;20026;-72
2022/01/28 07:29:11;;;;;;;22.60;7.23;;;;;;;2.26;98.07;103340.41;5197498;28;20036;-74
2022/01/28 07:31:42;;;;;;;22.97;4.30;;;;;;;1.89;98.32;103343.25;5218562;28;20520;-74
2022/01/28 07:34:14;;;;;;;18.57;3.93;;;;;;;2.01;99.15;103347.75;5216035;28;20013;-73
2022/01/28 07:36:45;;;;;;;10.37;3.93;;;;;;;2.03;99.71;103347.78;5221642;28;20104;-74
2022/01/28 07:39:17;;;;;;;15.07;4.90;;;;;;;2.05;98.88;103356.44;5228757;28;20021;-74
2022/01/28 07:41:48;;;;;;;20.83;4.23;;;;;;;2.21;99.06;103355.00;5221542;28;20447;-74
2022/01/28 07:44:19;;;;;;;13.30;4.70;;;;;;;2.21;98.17;103357.56;5214787;28;20034;-74
2022/01/28 07:46:51;;;;;;;12.70;3.13;;;;;;;2.25;98.23;103368.84;5232194;28;20476;-74
2022/01/28 07:49:22;;;;;;;11.80;3.43;;;;;;;2.16;97.93;103354.88;5230231;28;20090;-70
2022/01/28 07:51:53;;;;;;;15.03;4.00;;;;;;;2.01;100.00;103359.81;5224125;28;20440;-70
2022/01/28 07:54:25;;;;;;;17.70;3.80;;;;;;;1.91;99.66;103341.56;5216984;28;20029;-71
2022/01/28 07:56:56;;;;;;;18.00;4.63;;;;;;;2.15;98.83;103360.91;5212584;28;20187;-71
2022/01/28 07:59:28;;;;;;;15.13;3.43;;;;;;;2.22;98.44;103364.47;5223149;28;20090;-71
2022/01/28 08:01:59;;;;;;;14.10;3.63;;;;;;;2.17;98.45;103358.34;5227152;28;20048;-71
2022/01/28 08:04:30;;;;;;;10.43;3.50;;;;;;;2.12;97.71;103360.00;5199200;28;20026;-73
2022/01/28 08:07:02;;;;;;;15.17;3.70;;;;;;;2.18;98.75;103360.97;5214821;28;20034;-71
2022/01/28 08:09:33;;;;;;;11.77;3.83;;;;;;;2.21;98.33;103374.78;5204438;28;20041;-70
2022/01/28 08:12:05;;;;;;;12.87;3.37;;;;;;;2.15;98.02;103381.59;5220161;28;20029;-73
2022/01/28 08:14:36;;;;;;;14.80;4.63;;;;;;;2.11;96.74;103384.97;5233026;28;20037;-73
2022/01/28 08:17:07;;;;;;;13.67;3.20;;;;;;;2.08;97.89;103384.94;5233898;28;20021;-74
2022/01/28 08:19:39;;;;;;;14.87;4.53;;;;;;;2.12;99.45;103394.50;5228502;28;20033;-72
2022/01/28 08:22:10;;;;;;;19.60;5.10;;;;;;;2.18;98.98;103399.75;5226941;28;20065;-73
2022/01/28 08:24:41;;;;;;;11.67;3.50;;;;;;;2.29;97.83;103407.69;5229458;28;20033;-73
2022/01/28 08:27:12;;;;;;;15.57;3.83;;;;;;;2.36;97.79;103403.50;5214448;28;20045;-73
2022/01/28 08:29:44;;;;;;;12.70;3.50;;;;;;;2.26;98.33;103418.00;5211917;28;20040;-73
2022/01/28 08:32:15;;;;;;;12.73;4.17;;;;;;;2.38;98.00;103419.91;5210767;28;20432;-73
2022/01/28 08:34:46;;;;;;;15.43;5.17;;;;;;;2.34;98.54;103401.75;5193661;28;20488;-73
2022/01/28 08:37:17;;;;;;;15.37;3.30;;;;;;;2.33;98.74;103393.09;5212204;28;20496;-73
2022/01/28 08:39:49;;;;;;;19.07;4.43;;;;;;;2.40;99.45;103414.75;5212552;28;20099;-73
2022/01/28 08:42:20;;;;;;;16.13;5.00;;;;;;;2.54;99.07;103417.56;5212239;28;20032;-73
2022/01/28 08:44:51;;;;;;;12.67;4.57;;;;;;;2.46;98.87;103419.19;5211981;28;20033;-73
2022/01/28 08:47:23;;;;;;;17.80;4.27;;;;;;;2.61;100.00;103427.19;5212100;28;20092;-73
2022/01/28 08:49:54;;;;;;;17.27;5.03;;;;;;;2.61;100.00;103422.00;5211026;28;20033;-73
2022/01/28 08:52:25;;;;;;;17.50;4.27;;;;;;;2.65;100.00;103410.84;5212032;28;20029;-73
2022/01/28 08:54:56;;;;;;;21.93;5.17;;;;;;;2.74;100.00;103422.19;5212517;28;20030;-73
2022/01/28 08:57:28;;;;;;;14.13;4.10;;;;;;;2.90;100.00;103437.09;5211612;28;20030;-73
2022/01/28 09:00:05;;;;;;;13.93;5.00;;;;;;;2.83;100.00;103426.66;5212212;28;20037;-73
2022/01/28 09:02:36;;;;;;;16.53;4.23;;;;;;;2.95;100.00;103421.63;5210623;28;20033;-73
2022/01/28 09:05:08;;;;;;;25.27;6.03;;;;;;;3.01;100.00;103420.84;5212354;28;20457;-73
2022/01/28 09:07:39;;;;;;;20.30;4.73;;;;;;;3.00;100.00;103419.97;5210915;28;20050;-73
2022/01/28 09:10:18;;;;;;;18.67;5.37;;;;;;;3.07;100.00;103425.25;5193603;28;20026;-73
2022/01/28 09:13:10;;;;;;;22.27;5.67;;;;;;;3.19;100.00;103424.53;5211366;28;20522;-73
2022/01/28 09:15:41;;;;;;;19.47;6.07;;;;;;;3.20;100.00;103426.25;5211174;28;20424;-73
2022/01/28 09:18:13;;;;;;;24.47;5.47;;;;;;;3.22;100.00;103430.63;5192264;28;20022;-73
2022/01/28 09:20:44;;;;;;;19.77;6.00;;;;;;;3.31;100.00;103422.09;5211952;28;20033;-73
2022/01/28 09:23:16;;;;;;;23.20;5.77;;;;;;;3.40;100.00;103429.13;5211030;28;20026;-73
2022/01/28 09:25:48;;;;;;;19.03;6.43;;;;;;;3.36;100.00;103419.56;5211847;28;20018;-73
2022/01/28 09:28:20;;;;;;;21.23;6.73;;;;;;;3.36;100.00;103430.81;5210949;28;20401;-73
2022/01/28 09:30:52;;;;;;;19.27;5.60;;;;;;;3.45;100.00;103436.94;5211148;28;20022;-73
2022/01/28 09:33:24;;;;;;;28.23;5.70;;;;;;;3.52;100.00;103436.19;5210176;28;20547;-73
2022/01/28 09:35:55;;;;;;;21.40;6.13;;;;;;;3.56;100.00;103450.03;5211218;28;20041;-73
2022/01/28 09:38:26;;;;;;;16.37;5.77;;;;;;;3.65;100.00;103444.94;5211063;28;20468;-73
2022/01/28 09:41:02;;;;;;;26.63;5.57;;;;;;;3.71;100.00;103441.56;5210971;28;20502;-73
2022/01/28 09:43:33;;;;;;;16.77;5.77;;;;;;;3.76;100.00;103442.50;5196118;28;20025;-73
2022/01/28 09:46:05;;;;;;;23.83;5.67;;;;;;;3.80;100.00;103439.09;5212612;28;20068;-73
2022/01/28 09:48:38;;;;;;;22.47;6.27;;;;;;;4.27;100.00;103438.66;5209813;28;20026;-73
2022/01/28 09:51:09;;;;;;;19.43;5.83;;;;;;;5.66;100.00;103442.06;5210814;28;20025;-73
2022/01/28 09:53:41;;;;;;;21.23;7.07;;;;;;;7.23;94.19;103443.78;5210544;28;20022;-74
2022/01/28 09:56:12;;;;;;;20.23;4.13;;;;;;;8.28;87.64;103455.34;5210851;28;20021;-74
2022/01/28 09:58:43;;;;;;;16.13;4.37;;;;;;;9.15;83.97;103445.84;5210354;28;20030;-74
2022/01/28 10:01:15;;;;;;;17.60;4.97;;;;;;;9.72;79.74;103454.69;5210637;28;20030;-74
2022/01/28 10:04:04;;;;;;;15.73;4.20;;;;;;;10.13;82.55;103449.75;5192034;28;20048;-74
2022/01/28 10:06:36;;;;;;;14.90;3.80;;;;;;;10.37;76.24;103442.34;5193005;28;20026;-74
2022/01/28 10:09:09;;;;;;;13.07;4.37;;;;;;;10.38;74.87;103443.22;5209969;28;20068;-75
2022/01/28 10:11:43;;;;;;;18.07;4.63;;;;;;;9.83;75.72;103436.22;5210763;28;20560;-74
2022/01/28 10:14:18;;;;;;;18.63;4.60;;;;;;;9.16;77.37;103456.28;5192247;28;20032;-74
2022/01/28 10:17:00;;;;;;;;;;;;;;;9.46;84.49;103447.22;5193576;28;20030;-74
2022/01/28 10:19:40;;;;;;;17.23;5.03;;;;;;;8.50;82.43;103449.97;5209269;28;20434;-74
2022/01/28 10:22:19;;;;;;;28.00;5.37;;;;;;;8.26;83.32;103451.88;5192600;28;20029;-74
2022/01/28 10:24:50;;;;;;;15.87;4.40;;;;;;;7.92;83.15;103453.91;5211658;28;20069;-74
2022/01/28 10:27:23;;;;;;;19.70;5.30;;;;;;;7.63;84.63;103442.75;5210092;28;20160;-74
2022/01/28 10:30:05;;;;;;;25.40;5.23;;;;;;;7.48;85.61;103421.97;5209851;28;20022;-74
2022/01/28 10:32:36;;;;;;;13.07;4.53;;;;;;;7.32;87.18;103455.91;5209220;28;20136;-74
2022/01/28 10:35:07;;;;;;;19.00;4.30;;;;;;;7.35;86.72;103458.50;5210669;28;20042;-74
2022/01/28 10:37:39;;;;;;;26.47;5.23;;;;;;;7.24;87.32;103455.09;5210136;28;20104;-74
2022/01/28 10:40:10;;;;;;;21.57;5.60;;;;;;;7.16;87.86;103472.50;5210130;28;20060;-74
2022/01/28 10:42:52;;;;;;;24.70;6.53;;;;;;;6.97;89.36;103455.16;5208995;28;20484;-74
2022/01/28 10:45:29;;;;;;;19.13;5.37;;;;;;;6.97;90.15;103464.69;5209605;28;20030;-75
2022/01/28 10:48:02;;;;;;;25.50;5.20;;;;;;;7.09;88.98;103455.97;5191581;28;20088;-74
2022/01/28 10:50:38;;;;;;;20.87;5.33;;;;;;;7.09;89.75;103464.69;5209158;28;20045;-74
2022/01/28 10:53:13;;;;;;;19.47;5.40;;;;;;;7.09;90.25;103455.97;5210175;28;20026;-73
2022/01/28 10:55:53;;;;;;;16.90;5.90;;;;;;;7.08;90.19;103449.94;5209829;28;20452;-72
2022/01/28 10:58:27;;;;;;;20.87;7.00;;;;;;;7.17;89.93;103462.06;5217750;28;20403;-72
2022/01/28 11:00:59;;;;;;;13.85;4.55;;;;;;;7.07;90.90;103444.72;5224674;28;20380;-73
2022/01/28 11:03:31;;;;;;;19.93;4.70;;;;;;;7.09;90.30;103443.84;5218380;28;20036;-73
2022/01/28 11:06:05;;;;;;;21.20;4.90;;;;;;;7.02;91.18;103440.38;5217401;28;20172;-75
2022/01/28 11:08:36;;;;;;;16.30;5.07;;;;;;;7.10;89.52;103434.28;5219109;28;20065;-75
2022/01/28 11:11:08;;;;;;;18.57;4.93;;;;;;;7.11;88.55;103433.41;5215001;28;20056;-74
2022/01/28 11:13:41;;;;;;;17.23;4.00;;;;;;;7.21;87.83;103429.88;5211350;28;20439;-74
2022/01/28 11:16:13;;;;;;;22.67;4.57;;;;;;;7.23;88.18;103424.66;5209387;28;20018;-74
2022/01/28 11:18:45;;;;;;;15.60;4.23;;;;;;;7.21;88.18;103427.28;5210160;28;20389;-74
2022/01/28 11:21:19;;;;;;;14.20;3.90;;;;;;;7.28;87.10;103414.25;5210768;28;20026;-74
2022/01/28 11:24:13;;;;;;;19.20;4.22;;;;;;;7.51;87.18;103416.72;5208992;28;20025;-74
2022/01/28 11:27:13;;;;;;;15.23;3.93;;;;;;;7.37;85.55;103414.19;5209519;28;20076;-74
2022/01/28 11:29:44;;;;;;;13.30;3.80;;;;;;;7.34;85.68;103402.03;5185758;28;20030;-74
2022/01/28 11:32:17;;;;;;;12.53;4.00;;;;;;;7.19;87.62;103402.94;5190585;28;20032;-74
2022/01/28 11:35:02;;;;;;;17.13;4.40;;;;;;;7.28;87.63;103409.03;5202612;28;20023;-74
2022/01/28 11:37:34;;;;;;;17.60;5.00;;;;;;;7.39;86.61;103412.44;5218738;28;20097;-74
2022/01/28 11:40:12;;;;;;;18.60;3.30;;;;;;;7.43;85.17;103388.09;5224471;28;20109;-74
2022/01/28 11:42:43;;;;;;;17.17;3.70;;;;;;;7.43;85.32;103392.44;5230091;28;20791;-74
2022/01/28 11:45:14;;;;;;;19.87;3.90;;;;;;;7.49;83.96;103392.38;5229774;28;20057;-75
2022/01/28 11:47:54;;;;;;;17.97;4.33;;;;;;;7.69;83.46;103394.03;5228874;28;20574;-74
2022/01/28 11:50:26;;;;;;;19.47;3.83;;;;;;;7.70;83.73;103390.53;5229089;28;20111;-74
2022/01/28 11:52:58;;;;;;;14.20;3.50;;;;;;;7.71;82.47;103381.84;5227058;28;20061;-75
2022/01/28 11:55:31;;;;;;;17.70;4.37;;;;;;;7.81;81.40;103393.06;5233248;28;20017;-71
2022/01/28 11:58:11;;;;;;;18.53;3.80;;;;;;;7.82;81.21;103393.06;5233492;28;20079;-71
2022/01/28 12:00:44;;;;;;;13.73;3.20;;;;;;;7.98;80.93;103385.97;5233893;28;20179;-74
2022/01/28 12:03:19;;;;;;;17.00;4.37;;;;;;;7.98;82.02;103385.09;5224911;28;20088;-73
2022/01/28 12:05:58;;;;;;;18.17;3.72;;;;;;;8.17;81.42;103385.81;5229537;28;20492;-73
2022/01/28 12:08:31;;;;;;;19.87;4.10;;;;;;;8.23;79.51;103380.56;5217939;28;20408;-72
2022/01/28 12:11:06;;;;;;;19.37;3.83;;;;;;;8.21;80.32;103377.09;5218408;28;20072;-73
2022/01/28 12:14:07;;;;;;;16.77;3.60;;;;;;;8.31;78.58;103377.00;5218566;28;20060;-72
2022/01/28 12:16:42;;;;;;;13.87;3.00;;;;;;;8.20;77.69;103380.56;5206994;28;20554;-72
2022/01/28 12:19:18;;;;;;;12.40;3.43;;;;;;;8.38;78.13;103375.22;5214071;28;20026;-73
2022/01/28 12:22:04;;;;;;;18.73;3.93;;;;;;;8.49;77.11;103368.13;5210365;28;20021;-72
2022/01/28 12:24:37;;;;;;;13.47;3.17;;;;;;;8.36;75.50;103364.75;5218495;28;20029;-72
2022/01/28 12:27:11;;;;;;;13.77;3.40;;;;;;;8.43;73.34;103358.59;5228576;28;20036;-72
2022/01/28 12:29:48;;;;;;;14.52;2.85;;;;;;;8.36;74.66;103359.53;5227722;28;20029;-72
2022/01/28 12:32:23;;;;;;;9.23;2.47;;;;;;;8.34;73.11;103351.72;5223158;28;20079;-73
2022/01/28 12:34:55;;;;;;;14.57;3.87;;;;;;;8.17;73.23;103344.06;5206415;28;20021;-73
2022/01/28 12:37:29;;;;;;;8.03;2.60;;;;;;;8.33;72.98;103349.13;5203825;28;20037;-73
2022/01/28 12:40:03;;;;;;;14.15;3.50;;;;;;;8.18;73.86;103340.59;5230430;28;20465;-74
2022/01/28 12:42:39;;;;;;;8.43;3.73;;;;;;;8.28;73.28;103337.88;5232737;28;20049;-74
2022/01/28 12:45:10;;;;;;;13.97;4.93;;;;;;;8.28;73.61;103337.88;5224145;28;20049;-76
2022/01/28 12:47:44;;;;;;;13.87;4.43;;;;;;;8.28;74.87;103336.13;5230888;28;20029;-74
2022/01/28 12:50:16;;;;;;;17.17;5.07;;;;;;;8.21;75.29;103324.00;5232794;28;20056;-75
2022/01/28 12:52:48;;;;;;;14.43;4.57;;;;;;;8.27;75.94;103329.19;5233349;28;20117;-76
2022/01/28 12:55:19;;;;;;;13.80;5.63;;;;;;;8.34;76.28;103324.78;5232201;28;20450;-74
2022/01/28 12:57:50;;;;;;;17.50;4.90;;;;;;;8.27;76.29;103325.69;5232985;28;20810;-70
2022/01/28 13:00:21;;;;;;;17.77;5.30;;;;;;;8.39;76.52;103322.09;5231845;28;20026;-71